sensor_id;sensor_type;location;lat;lon;timestamp;P1;durP1;ratioP1;P2;durP2;ratioP2
15502;SDS011;7853;52.186;5.948;2023-04-07T00:03:07;14.87;;;10.69;;
15502;SDS011;7853;52.186;5.948;2023-04-07T00:03:07;15.51;;;10.12;;
15502;SDS011;7853;52.186;5.948;2023-04-07T00:03:47;13.82;;;9.81;;
15502;SDS011;7853;52.186;5.948;2023-04-07T00:04:40;14.44;;;10.32;;
15502;SDS011;7853;52.186;5.948;2023-04-07T00:05:36;15.15;;;10.93;;
15502;SDS011;7853;52.186;5.948;2023-04-07T00:06:34;15.79;;;11.00;;
15502;SDS011;7853;52.186;5.948;2023-04-07T00:07:33;15.18;;;9.86;;
15502;SDS011;7853;52.186;5.948;2023-04-07T00:08:33;13.60;;;9.05;;
15502;SDS011;7853;52.186;5.948;2023-04-07T00:09:33;15.23;;;10.37;;
15502;SDS011;7853;52.186;5.948;2023-04-07T00:10:33;15.43;;;10.11;;
15502;SDS011;7853;52.186;5.948;2023-04-07T00:11:33;15.94;;;10.71;;
15502;SDS011;7853;52.186;5.948;2023-04-07T00:12:33;15.50;;;10.49;;
15502;SDS011;7853;52.186;5.948;2023-04-07T00:13:33;16.85;;;10.94;;
15502;SDS011;7853;52.186;5.948;2023-04-07T00:14:33;16.45;;;11.31;;
15502;SDS011;7853;52.186;5.948;2023-04-07T00:15:33;17.25;;;11.56;;
15502;SDS011;7853;52.186;5.948;2023-04-07T00:16:33;17.15;;;10.75;;
15502;SDS011;7853;52.186;5.948;2023-04-07T00:17:33;16.30;;;10.58;;
15502;SDS011;7853;52.186;5.948;2023-04-07T00:18:33;16.24;;;10.93;;
15502;SDS011;7853;52.186;5.948;2023-04-07T00:19:33;15.76;;;9.86;;
15502;SDS011;7853;52.186;5.948;2023-04-07T00:20:33;15.56;;;10.55;;
15502;SDS011;7853;52.186;5.948;2023-04-07T00:21:33;16.03;;;10.59;;
15502;SDS011;7853;52.186;5.948;2023-04-07T00:22:33;16.82;;;10.72;;
15502;SDS011;7853;52.186;5.948;2023-04-07T00:23:33;16.69;;;10.65;;
15502;SDS011;7853;52.186;5.948;2023-04-07T00:24:33;16.36;;;11.36;;
15502;SDS011;7853;52.186;5.948;2023-04-07T00:25:33;16.41;;;10.89;;
15502;SDS011;7853;52.186;5.948;2023-04-07T00:26:33;17.36;;;10.67;;
15502;SDS011;7853;52.186;5.948;2023-04-07T00:27:33;15.52;;;9.52;;
15502;SDS011;7853;52.186;5.948;2023-04-07T00:28:34;15.33;;;9.87;;
15502;SDS011;7853;52.186;5.948;2023-04-07T00:29:34;16.17;;;10.84;;
15502;SDS011;7853;52.186;5.948;2023-04-07T00:30:34;14.62;;;9.49;;
15502;SDS011;7853;52.186;5.948;2023-04-07T00:31:34;13.68;;;9.09;;
15502;SDS011;7853;52.186;5.948;2023-04-07T00:32:34;14.99;;;9.68;;
15502;SDS011;7853;52.186;5.948;2023-04-07T00:33:34;14.23;;;9.47;;
15502;SDS011;7853;52.186;5.948;2023-04-07T00:34:34;13.92;;;8.95;;
15502;SDS011;7853;52.186;5.948;2023-04-07T00:35:34;12.68;;;7.98;;
15502;SDS011;7853;52.186;5.948;2023-04-07T00:36:34;14.47;;;8.99;;
15502;SDS011;7853;52.186;5.948;2023-04-07T00:37:34;13.32;;;8.79;;
15502;SDS011;7853;52.186;5.948;2023-04-07T00:38:34;12.44;;;8.08;;
15502;SDS011;7853;52.186;5.948;2023-04-07T00:39:34;13.87;;;8.94;;
15502;SDS011;7853;52.186;5.948;2023-04-07T00:40:34;13.64;;;8.76;;
15502;SDS011;7853;52.186;5.948;2023-04-07T00:41:34;11.80;;;7.84;;
15502;SDS011;7853;52.186;5.948;2023-04-07T00:42:34;12.59;;;8.15;;
15502;SDS011;7853;52.186;5.948;2023-04-07T00:43:34;11.14;;;7.36;;
15502;SDS011;7853;52.186;5.948;2023-04-07T00:44:34;10.16;;;7.18;;
15502;SDS011;7853;52.186;5.948;2023-04-07T00:45:34;11.57;;;7.59;;
15502;SDS011;7853;52.186;5.948;2023-04-07T00:46:34;10.10;;;6.61;;
15502;SDS011;7853;52.186;5.948;2023-04-07T00:47:34;12.04;;;7.66;;
15502;SDS011;7853;52.186;5.948;2023-04-07T00:48:34;11.98;;;8.07;;
15502;SDS011;7853;52.186;5.948;2023-04-07T00:49:35;11.55;;;6.95;;
15502;SDS011;7853;52.186;5.948;2023-04-07T00:50:34;10.57;;;7.30;;
15502;SDS011;7853;52.186;5.948;2023-04-07T00:51:34;10.31;;;7.11;;
15502;SDS011;7853;52.186;5.948;2023-04-07T00:52:34;10.76;;;7.49;;
15502;SDS011;7853;52.186;5.948;2023-04-07T00:53:34;10.61;;;7.36;;
15502;SDS011;7853;52.186;5.948;2023-04-07T00:54:34;10.05;;;6.82;;
15502;SDS011;7853;52.186;5.948;2023-04-07T00:55:34;9.39;;;6.96;;
15502;SDS011;7853;52.186;5.948;2023-04-07T00:56:34;10.39;;;7.00;;
15502;SDS011;7853;52.186;5.948;2023-04-07T00:57:34;9.02;;;5.52;;
15502;SDS011;7853;52.186;5.948;2023-04-07T00:58:34;9.11;;;5.69;;
15502;SDS011;7853;52.186;5.948;2023-04-07T00:59:34;8.62;;;6.23;;
15502;SDS011;7853;52.186;5.948;2023-04-07T01:00:44;10.07;;;6.66;;
15502;SDS011;7853;52.186;5.948;2023-04-07T01:01:50;9.75;;;5.83;;
15502;SDS011;7853;52.186;5.948;2023-04-07T01:02:41;8.88;;;5.82;;
15502;SDS011;7853;52.186;5.948;2023-04-07T01:03:38;9.73;;;5.91;;
15502;SDS011;7853;52.186;5.948;2023-04-07T01:04:38;7.52;;;5.16;;
15502;SDS011;7853;52.186;5.948;2023-04-07T01:05:35;8.40;;;5.88;;
15502;SDS011;7853;52.186;5.948;2023-04-07T01:06:35;11.11;;;6.77;;
15502;SDS011;7853;52.186;5.948;2023-04-07T01:07:34;9.27;;;6.16;;
15502;SDS011;7853;52.186;5.948;2023-04-07T01:08:37;8.90;;;5.76;;
15502;SDS011;7853;52.186;5.948;2023-04-07T01:09:36;7.95;;;5.05;;
15502;SDS011;7853;52.186;5.948;2023-04-07T01:10:40;9.26;;;5.67;;
15502;SDS011;7853;52.186;5.948;2023-04-07T01:11:36;7.99;;;5.86;;
15502;SDS011;7853;52.186;5.948;2023-04-07T01:12:35;8.36;;;5.57;;
15502;SDS011;7853;52.186;5.948;2023-04-07T01:13:35;7.91;;;5.38;;
15502;SDS011;7853;52.186;5.948;2023-04-07T01:14:34;7.12;;;5.19;;
15502;SDS011;7853;52.186;5.948;2023-04-07T01:15:34;7.48;;;5.27;;
15502;SDS011;7853;52.186;5.948;2023-04-07T01:16:34;7.24;;;4.73;;
15502;SDS011;7853;52.186;5.948;2023-04-07T01:17:34;6.61;;;4.55;;
15502;SDS011;7853;52.186;5.948;2023-04-07T01:18:34;6.14;;;4.52;;
15502;SDS011;7853;52.186;5.948;2023-04-07T01:19:35;6.76;;;4.38;;
15502;SDS011;7853;52.186;5.948;2023-04-07T01:20:34;6.40;;;4.06;;
15502;SDS011;7853;52.186;5.948;2023-04-07T01:21:34;7.04;;;4.09;;
15502;SDS011;7853;52.186;5.948;2023-04-07T01:22:36;5.74;;;3.68;;
15502;SDS011;7853;52.186;5.948;2023-04-07T01:23:38;5.24;;;3.70;;
15502;SDS011;7853;52.186;5.948;2023-04-07T01:24:45;5.39;;;3.67;;
15502;SDS011;7853;52.186;5.948;2023-04-07T01:25:52;5.55;;;3.34;;
15502;SDS011;7853;52.186;5.948;2023-04-07T01:26:40;5.15;;;3.11;;
15502;SDS011;7853;52.186;5.948;2023-04-07T01:27:38;4.41;;;3.07;;
15502;SDS011;7853;52.186;5.948;2023-04-07T01:28:44;4.74;;;3.25;;
15502;SDS011;7853;52.186;5.948;2023-04-07T01:29:48;4.57;;;2.96;;
15502;SDS011;7853;52.186;5.948;2023-04-07T01:30:40;4.75;;;3.39;;
15502;SDS011;7853;52.186;5.948;2023-04-07T01:31:37;5.65;;;3.36;;
15502;SDS011;7853;52.186;5.948;2023-04-07T01:32:34;4.93;;;3.53;;
15502;SDS011;7853;52.186;5.948;2023-04-07T01:33:33;5.98;;;3.35;;
15502;SDS011;7853;52.186;5.948;2023-04-07T01:34:33;5.20;;;3.45;;
15502;SDS011;7853;52.186;5.948;2023-04-07T01:35:33;5.53;;;3.60;;
15502;SDS011;7853;52.186;5.948;2023-04-07T01:36:33;4.90;;;3.57;;
15502;SDS011;7853;52.186;5.948;2023-04-07T01:37:33;5.79;;;3.33;;
15502;SDS011;7853;52.186;5.948;2023-04-07T01:38:33;5.96;;;3.00;;
15502;SDS011;7853;52.186;5.948;2023-04-07T01:39:33;5.73;;;3.16;;
15502;SDS011;7853;52.186;5.948;2023-04-07T01:40:33;4.52;;;2.27;;
15502;SDS011;7853;52.186;5.948;2023-04-07T01:41:33;3.86;;;2.38;;
15502;SDS011;7853;52.186;5.948;2023-04-07T01:42:33;3.77;;;2.64;;
15502;SDS011;7853;52.186;5.948;2023-04-07T01:43:33;4.74;;;2.82;;
15502;SDS011;7853;52.186;5.948;2023-04-07T01:44:33;4.17;;;2.87;;
15502;SDS011;7853;52.186;5.948;2023-04-07T01:45:33;4.82;;;2.89;;
15502;SDS011;7853;52.186;5.948;2023-04-07T01:46:33;3.72;;;2.44;;
15502;SDS011;7853;52.186;5.948;2023-04-07T01:47:34;4.07;;;2.43;;
15502;SDS011;7853;52.186;5.948;2023-04-07T01:48:33;4.20;;;2.32;;
15502;SDS011;7853;52.186;5.948;2023-04-07T01:49:34;3.60;;;2.15;;
15502;SDS011;7853;52.186;5.948;2023-04-07T01:50:33;4.22;;;2.56;;
15502;SDS011;7853;52.186;5.948;2023-04-07T01:51:33;3.37;;;2.53;;
15502;SDS011;7853;52.186;5.948;2023-04-07T01:52:34;4.26;;;2.57;;
15502;SDS011;7853;52.186;5.948;2023-04-07T01:53:34;3.61;;;2.44;;
15502;SDS011;7853;52.186;5.948;2023-04-07T01:54:34;4.57;;;2.48;;
15502;SDS011;7853;52.186;5.948;2023-04-07T01:55:34;4.35;;;2.45;;
15502;SDS011;7853;52.186;5.948;2023-04-07T01:56:34;4.11;;;2.60;;
15502;SDS011;7853;52.186;5.948;2023-04-07T01:57:34;3.15;;;2.38;;
15502;SDS011;7853;52.186;5.948;2023-04-07T01:58:34;4.41;;;2.43;;
15502;SDS011;7853;52.186;5.948;2023-04-07T01:59:34;4.63;;;2.49;;
15502;SDS011;7853;52.186;5.948;2023-04-07T02:00:34;4.02;;;2.21;;
15502;SDS011;7853;52.186;5.948;2023-04-07T02:01:34;3.57;;;2.41;;
15502;SDS011;7853;52.186;5.948;2023-04-07T02:02:35;4.96;;;2.41;;
15502;SDS011;7853;52.186;5.948;2023-04-07T02:03:35;3.87;;;2.46;;
15502;SDS011;7853;52.186;5.948;2023-04-07T02:04:34;4.01;;;2.54;;
15502;SDS011;7853;52.186;5.948;2023-04-07T02:05:34;3.40;;;2.56;;
15502;SDS011;7853;52.186;5.948;2023-04-07T02:06:42;5.38;;;2.61;;
15502;SDS011;7853;52.186;5.948;2023-04-07T02:07:36;4.91;;;2.68;;
15502;SDS011;7853;52.186;5.948;2023-04-07T02:08:34;5.06;;;2.59;;
15502;SDS011;7853;52.186;5.948;2023-04-07T02:09:34;4.84;;;2.42;;
15502;SDS011;7853;52.186;5.948;2023-04-07T02:10:36;3.96;;;2.34;;
15502;SDS011;7853;52.186;5.948;2023-04-07T02:11:34;4.30;;;2.28;;
15502;SDS011;7853;52.186;5.948;2023-04-07T02:12:35;4.26;;;2.57;;
15502;SDS011;7853;52.186;5.948;2023-04-07T02:13:34;3.40;;;2.16;;
15502;SDS011;7853;52.186;5.948;2023-04-07T02:14:34;5.03;;;2.26;;
15502;SDS011;7853;52.186;5.948;2023-04-07T02:15:34;4.00;;;2.28;;
15502;SDS011;7853;52.186;5.948;2023-04-07T02:16:34;3.96;;;2.44;;
15502;SDS011;7853;52.186;5.948;2023-04-07T02:17:35;3.72;;;2.48;;
15502;SDS011;7853;52.186;5.948;2023-04-07T02:18:34;5.23;;;2.98;;
15502;SDS011;7853;52.186;5.948;2023-04-07T02:19:34;4.36;;;2.40;;
15502;SDS011;7853;52.186;5.948;2023-04-07T02:20:34;4.14;;;2.52;;
15502;SDS011;7853;52.186;5.948;2023-04-07T02:21:34;3.99;;;2.49;;
15502;SDS011;7853;52.186;5.948;2023-04-07T02:22:34;3.96;;;2.57;;
15502;SDS011;7853;52.186;5.948;2023-04-07T02:23:34;5.13;;;2.84;;
15502;SDS011;7853;52.186;5.948;2023-04-07T02:24:34;3.78;;;2.57;;
15502;SDS011;7853;52.186;5.948;2023-04-07T02:25:34;4.46;;;2.47;;
15502;SDS011;7853;52.186;5.948;2023-04-07T02:26:34;6.67;;;2.42;;
15502;SDS011;7853;52.186;5.948;2023-04-07T02:27:35;5.96;;;2.60;;
15502;SDS011;7853;52.186;5.948;2023-04-07T02:28:34;4.53;;;2.93;;
15502;SDS011;7853;52.186;5.948;2023-04-07T02:29:34;4.38;;;2.90;;
15502;SDS011;7853;52.186;5.948;2023-04-07T02:30:34;4.42;;;3.00;;
15502;SDS011;7853;52.186;5.948;2023-04-07T02:31:34;4.90;;;3.10;;
15502;SDS011;7853;52.186;5.948;2023-04-07T02:32:34;5.59;;;3.01;;
15502;SDS011;7853;52.186;5.948;2023-04-07T02:33:34;4.70;;;3.07;;
15502;SDS011;7853;52.186;5.948;2023-04-07T02:34:34;5.98;;;3.01;;
15502;SDS011;7853;52.186;5.948;2023-04-07T02:35:34;6.53;;;3.29;;
15502;SDS011;7853;52.186;5.948;2023-04-07T02:36:34;6.26;;;3.48;;
15502;SDS011;7853;52.186;5.948;2023-04-07T02:37:34;6.09;;;3.47;;
15502;SDS011;7853;52.186;5.948;2023-04-07T02:38:35;5.89;;;3.09;;
15502;SDS011;7853;52.186;5.948;2023-04-07T02:39:34;6.39;;;3.58;;
15502;SDS011;7853;52.186;5.948;2023-04-07T02:40:34;6.55;;;3.42;;
15502;SDS011;7853;52.186;5.948;2023-04-07T02:41:34;6.18;;;3.49;;
15502;SDS011;7853;52.186;5.948;2023-04-07T02:42:34;5.08;;;2.69;;
15502;SDS011;7853;52.186;5.948;2023-04-07T02:43:34;5.40;;;3.23;;
15502;SDS011;7853;52.186;5.948;2023-04-07T02:44:34;6.02;;;3.77;;
15502;SDS011;7853;52.186;5.948;2023-04-07T02:45:34;5.45;;;3.40;;
15502;SDS011;7853;52.186;5.948;2023-04-07T02:46:34;6.55;;;3.14;;
15502;SDS011;7853;52.186;5.948;2023-04-07T02:47:35;5.72;;;3.18;;
15502;SDS011;7853;52.186;5.948;2023-04-07T02:48:34;6.35;;;3.18;;
15502;SDS011;7853;52.186;5.948;2023-04-07T02:49:34;6.64;;;3.47;;
15502;SDS011;7853;52.186;5.948;2023-04-07T02:50:34;6.20;;;3.47;;
15502;SDS011;7853;52.186;5.948;2023-04-07T02:51:34;6.13;;;3.88;;
15502;SDS011;7853;52.186;5.948;2023-04-07T02:52:35;6.12;;;3.76;;
15502;SDS011;7853;52.186;5.948;2023-04-07T02:53:34;5.70;;;3.28;;
15502;SDS011;7853;52.186;5.948;2023-04-07T02:54:34;6.00;;;3.31;;
15502;SDS011;7853;52.186;5.948;2023-04-07T02:55:34;8.53;;;4.43;;
15502;SDS011;7853;52.186;5.948;2023-04-07T02:56:34;7.31;;;3.74;;
15502;SDS011;7853;52.186;5.948;2023-04-07T02:57:34;6.41;;;3.65;;
15502;SDS011;7853;52.186;5.948;2023-04-07T02:58:34;6.31;;;3.76;;
15502;SDS011;7853;52.186;5.948;2023-04-07T02:59:34;7.25;;;3.70;;
15502;SDS011;7853;52.186;5.948;2023-04-07T03:00:35;6.40;;;3.58;;
15502;SDS011;7853;52.186;5.948;2023-04-07T03:01:34;6.08;;;3.58;;
15502;SDS011;7853;52.186;5.948;2023-04-07T03:02:35;7.46;;;3.89;;
15502;SDS011;7853;52.186;5.948;2023-04-07T03:03:34;7.54;;;3.86;;
15502;SDS011;7853;52.186;5.948;2023-04-07T03:04:34;7.12;;;3.58;;
15502;SDS011;7853;52.186;5.948;2023-04-07T03:05:34;6.39;;;3.61;;
15502;SDS011;7853;52.186;5.948;2023-04-07T03:06:35;6.26;;;3.59;;
15502;SDS011;7853;52.186;5.948;2023-04-07T03:07:34;6.29;;;3.53;;
15502;SDS011;7853;52.186;5.948;2023-04-07T03:08:34;6.65;;;3.52;;
15502;SDS011;7853;52.186;5.948;2023-04-07T03:09:34;6.11;;;3.46;;
15502;SDS011;7853;52.186;5.948;2023-04-07T03:10:34;5.65;;;3.72;;
15502;SDS011;7853;52.186;5.948;2023-04-07T03:11:35;5.36;;;3.35;;
15502;SDS011;7853;52.186;5.948;2023-04-07T03:12:34;5.44;;;3.36;;
15502;SDS011;7853;52.186;5.948;2023-04-07T03:13:34;6.01;;;3.55;;
15502;SDS011;7853;52.186;5.948;2023-04-07T03:14:35;5.08;;;3.04;;
15502;SDS011;7853;52.186;5.948;2023-04-07T03:15:34;6.13;;;3.43;;
15502;SDS011;7853;52.186;5.948;2023-04-07T03:16:34;6.79;;;3.62;;
15502;SDS011;7853;52.186;5.948;2023-04-07T03:17:34;7.32;;;3.27;;
15502;SDS011;7853;52.186;5.948;2023-04-07T03:18:34;5.27;;;3.10;;
15502;SDS011;7853;52.186;5.948;2023-04-07T03:19:34;4.79;;;3.19;;
15502;SDS011;7853;52.186;5.948;2023-04-07T03:20:34;5.54;;;3.21;;
15502;SDS011;7853;52.186;5.948;2023-04-07T03:21:36;6.67;;;3.27;;
15502;SDS011;7853;52.186;5.948;2023-04-07T03:22:34;6.27;;;2.99;;
15502;SDS011;7853;52.186;5.948;2023-04-07T03:23:34;5.31;;;3.16;;
15502;SDS011;7853;52.186;5.948;2023-04-07T03:24:35;6.76;;;2.93;;
15502;SDS011;7853;52.186;5.948;2023-04-07T03:25:34;5.25;;;2.97;;
15502;SDS011;7853;52.186;5.948;2023-04-07T03:26:35;6.31;;;3.02;;
15502;SDS011;7853;52.186;5.948;2023-04-07T03:27:36;5.07;;;2.75;;
15502;SDS011;7853;52.186;5.948;2023-04-07T03:28:34;5.59;;;3.05;;
15502;SDS011;7853;52.186;5.948;2023-04-07T03:29:34;5.54;;;2.97;;
15502;SDS011;7853;52.186;5.948;2023-04-07T03:30:35;5.54;;;3.04;;
15502;SDS011;7853;52.186;5.948;2023-04-07T03:31:34;7.76;;;2.99;;
15502;SDS011;7853;52.186;5.948;2023-04-07T03:32:34;7.14;;;3.43;;
15502;SDS011;7853;52.186;5.948;2023-04-07T03:33:34;5.72;;;2.99;;
15502;SDS011;7853;52.186;5.948;2023-04-07T03:34:34;6.25;;;3.19;;
15502;SDS011;7853;52.186;5.948;2023-04-07T03:35:34;6.35;;;3.28;;
15502;SDS011;7853;52.186;5.948;2023-04-07T03:36:34;4.23;;;2.93;;
15502;SDS011;7853;52.186;5.948;2023-04-07T03:37:34;4.67;;;3.07;;
15502;SDS011;7853;52.186;5.948;2023-04-07T03:38:34;5.11;;;3.12;;
15502;SDS011;7853;52.186;5.948;2023-04-07T03:39:35;5.57;;;3.24;;
15502;SDS011;7853;52.186;5.948;2023-04-07T03:40:35;7.17;;;3.21;;
15502;SDS011;7853;52.186;5.948;2023-04-07T03:41:35;5.85;;;3.23;;
15502;SDS011;7853;52.186;5.948;2023-04-07T03:42:34;4.85;;;3.13;;
15502;SDS011;7853;52.186;5.948;2023-04-07T03:43:34;4.73;;;2.96;;
15502;SDS011;7853;52.186;5.948;2023-04-07T03:44:34;4.25;;;2.65;;
15502;SDS011;7853;52.186;5.948;2023-04-07T03:45:34;5.77;;;2.79;;
15502;SDS011;7853;52.186;5.948;2023-04-07T03:46:35;5.41;;;3.00;;
15502;SDS011;7853;52.186;5.948;2023-04-07T03:47:34;6.81;;;3.32;;
15502;SDS011;7853;52.186;5.948;2023-04-07T03:48:35;6.84;;;3.19;;
15502;SDS011;7853;52.186;5.948;2023-04-07T03:49:34;5.37;;;2.87;;
15502;SDS011;7853;52.186;5.948;2023-04-07T03:50:35;5.48;;;2.75;;
15502;SDS011;7853;52.186;5.948;2023-04-07T03:51:34;5.83;;;3.21;;
15502;SDS011;7853;52.186;5.948;2023-04-07T03:52:34;5.48;;;3.24;;
15502;SDS011;7853;52.186;5.948;2023-04-07T03:53:34;5.93;;;3.07;;
15502;SDS011;7853;52.186;5.948;2023-04-07T03:54:35;5.58;;;3.13;;
15502;SDS011;7853;52.186;5.948;2023-04-07T03:55:35;5.52;;;3.21;;
15502;SDS011;7853;52.186;5.948;2023-04-07T03:56:34;5.52;;;2.94;;
15502;SDS011;7853;52.186;5.948;2023-04-07T03:57:34;5.76;;;3.20;;
15502;SDS011;7853;52.186;5.948;2023-04-07T03:58:35;4.87;;;3.05;;
15502;SDS011;7853;52.186;5.948;2023-04-07T03:59:35;5.42;;;2.98;;
15502;SDS011;7853;52.186;5.948;2023-04-07T04:00:35;5.38;;;3.22;;
15502;SDS011;7853;52.186;5.948;2023-04-07T04:01:35;6.26;;;3.21;;
15502;SDS011;7853;52.186;5.948;2023-04-07T04:02:34;6.02;;;3.64;;
15502;SDS011;7853;52.186;5.948;2023-04-07T04:03:34;5.46;;;3.69;;
15502;SDS011;7853;52.186;5.948;2023-04-07T04:04:34;6.50;;;3.65;;
15502;SDS011;7853;52.186;5.948;2023-04-07T04:05:35;6.51;;;3.32;;
15502;SDS011;7853;52.186;5.948;2023-04-07T04:06:34;6.05;;;3.51;;
15502;SDS011;7853;52.186;5.948;2023-04-07T04:07:34;4.66;;;3.38;;
15502;SDS011;7853;52.186;5.948;2023-04-07T04:08:35;5.07;;;3.23;;
15502;SDS011;7853;52.186;5.948;2023-04-07T04:09:34;6.09;;;3.34;;
15502;SDS011;7853;52.186;5.948;2023-04-07T04:10:35;6.05;;;3.02;;
15502;SDS011;7853;52.186;5.948;2023-04-07T04:11:35;5.52;;;3.15;;
15502;SDS011;7853;52.186;5.948;2023-04-07T04:12:35;5.34;;;3.21;;
15502;SDS011;7853;52.186;5.948;2023-04-07T04:13:34;6.09;;;3.20;;
15502;SDS011;7853;52.186;5.948;2023-04-07T04:14:35;5.50;;;2.78;;
15502;SDS011;7853;52.186;5.948;2023-04-07T04:15:34;5.85;;;2.98;;
15502;SDS011;7853;52.186;5.948;2023-04-07T04:16:34;7.50;;;3.49;;
15502;SDS011;7853;52.186;5.948;2023-04-07T04:17:34;5.35;;;3.26;;
15502;SDS011;7853;52.186;5.948;2023-04-07T04:18:35;5.12;;;3.01;;
15502;SDS011;7853;52.186;5.948;2023-04-07T04:19:35;4.88;;;2.70;;
15502;SDS011;7853;52.186;5.948;2023-04-07T04:20:34;5.30;;;3.03;;
15502;SDS011;7853;52.186;5.948;2023-04-07T04:21:34;6.19;;;3.12;;
15502;SDS011;7853;52.186;5.948;2023-04-07T04:22:35;6.21;;;3.09;;
15502;SDS011;7853;52.186;5.948;2023-04-07T04:23:34;6.24;;;3.01;;
15502;SDS011;7853;52.186;5.948;2023-04-07T04:24:35;5.54;;;3.07;;
15502;SDS011;7853;52.186;5.948;2023-04-07T04:25:35;5.87;;;3.27;;
15502;SDS011;7853;52.186;5.948;2023-04-07T04:26:35;6.67;;;3.39;;
15502;SDS011;7853;52.186;5.948;2023-04-07T04:27:34;5.66;;;3.34;;
15502;SDS011;7853;52.186;5.948;2023-04-07T04:28:35;6.97;;;3.14;;
15502;SDS011;7853;52.186;5.948;2023-04-07T04:29:35;5.23;;;2.90;;
15502;SDS011;7853;52.186;5.948;2023-04-07T04:30:38;4.28;;;2.69;;
15502;SDS011;7853;52.186;5.948;2023-04-07T04:31:35;4.96;;;3.11;;
15502;SDS011;7853;52.186;5.948;2023-04-07T04:32:34;6.35;;;3.41;;
15502;SDS011;7853;52.186;5.948;2023-04-07T04:33:34;5.49;;;3.31;;
15502;SDS011;7853;52.186;5.948;2023-04-07T04:34:35;6.64;;;3.38;;
15502;SDS011;7853;52.186;5.948;2023-04-07T04:35:35;5.10;;;3.07;;
15502;SDS011;7853;52.186;5.948;2023-04-07T04:36:34;5.37;;;3.17;;
15502;SDS011;7853;52.186;5.948;2023-04-07T04:37:34;5.55;;;3.32;;
15502;SDS011;7853;52.186;5.948;2023-04-07T04:38:35;5.97;;;3.67;;
15502;SDS011;7853;52.186;5.948;2023-04-07T04:39:35;5.67;;;3.36;;
15502;SDS011;7853;52.186;5.948;2023-04-07T04:40:35;6.64;;;3.14;;
15502;SDS011;7853;52.186;5.948;2023-04-07T04:41:35;5.08;;;3.01;;
15502;SDS011;7853;52.186;5.948;2023-04-07T04:42:35;5.23;;;2.99;;
15502;SDS011;7853;52.186;5.948;2023-04-07T04:43:34;6.55;;;3.09;;
15502;SDS011;7853;52.186;5.948;2023-04-07T04:44:35;6.02;;;3.39;;
15502;SDS011;7853;52.186;5.948;2023-04-07T04:45:35;4.95;;;3.15;;
15502;SDS011;7853;52.186;5.948;2023-04-07T04:46:34;6.02;;;3.16;;
15502;SDS011;7853;52.186;5.948;2023-04-07T04:47:34;5.12;;;3.28;;
15502;SDS011;7853;52.186;5.948;2023-04-07T04:48:35;7.27;;;3.33;;
15502;SDS011;7853;52.186;5.948;2023-04-07T04:49:34;6.10;;;3.05;;
15502;SDS011;7853;52.186;5.948;2023-04-07T04:50:35;4.95;;;3.27;;
15502;SDS011;7853;52.186;5.948;2023-04-07T04:51:34;5.99;;;3.36;;
15502;SDS011;7853;52.186;5.948;2023-04-07T04:52:35;5.93;;;3.29;;
15502;SDS011;7853;52.186;5.948;2023-04-07T04:53:35;5.03;;;3.06;;
15502;SDS011;7853;52.186;5.948;2023-04-07T04:54:34;5.93;;;3.27;;
15502;SDS011;7853;52.186;5.948;2023-04-07T04:55:35;5.87;;;3.23;;
15502;SDS011;7853;52.186;5.948;2023-04-07T04:56:34;6.61;;;3.16;;
15502;SDS011;7853;52.186;5.948;2023-04-07T04:57:35;6.15;;;3.14;;
15502;SDS011;7853;52.186;5.948;2023-04-07T04:58:36;4.51;;;2.91;;
15502;SDS011;7853;52.186;5.948;2023-04-07T04:59:34;5.51;;;3.00;;
15502;SDS011;7853;52.186;5.948;2023-04-07T05:00:36;5.91;;;3.30;;
15502;SDS011;7853;52.186;5.948;2023-04-07T05:01:34;6.14;;;3.32;;
15502;SDS011;7853;52.186;5.948;2023-04-07T05:02:35;5.59;;;3.15;;
15502;SDS011;7853;52.186;5.948;2023-04-07T05:03:34;4.90;;;3.06;;
15502;SDS011;7853;52.186;5.948;2023-04-07T05:04:34;5.85;;;3.18;;
15502;SDS011;7853;52.186;5.948;2023-04-07T05:05:34;5.26;;;3.16;;
15502;SDS011;7853;52.186;5.948;2023-04-07T05:06:35;6.93;;;3.39;;
15502;SDS011;7853;52.186;5.948;2023-04-07T05:07:35;5.92;;;3.32;;
15502;SDS011;7853;52.186;5.948;2023-04-07T05:08:34;5.17;;;3.08;;
15502;SDS011;7853;52.186;5.948;2023-04-07T05:09:34;5.20;;;3.13;;
15502;SDS011;7853;52.186;5.948;2023-04-07T05:10:36;5.39;;;3.09;;
15502;SDS011;7853;52.186;5.948;2023-04-07T05:11:35;4.81;;;3.14;;
15502;SDS011;7853;52.186;5.948;2023-04-07T05:12:35;5.83;;;3.45;;
15502;SDS011;7853;52.186;5.948;2023-04-07T05:13:35;4.97;;;3.02;;
15502;SDS011;7853;52.186;5.948;2023-04-07T05:14:35;6.04;;;3.29;;
15502;SDS011;7853;52.186;5.948;2023-04-07T05:15:35;6.82;;;3.56;;
15502;SDS011;7853;52.186;5.948;2023-04-07T05:16:35;5.71;;;3.20;;
15502;SDS011;7853;52.186;5.948;2023-04-07T05:17:34;5.65;;;3.45;;
15502;SDS011;7853;52.186;5.948;2023-04-07T05:18:35;5.42;;;3.27;;
15502;SDS011;7853;52.186;5.948;2023-04-07T05:19:34;5.48;;;3.38;;
15502;SDS011;7853;52.186;5.948;2023-04-07T05:20:34;6.29;;;3.46;;
15502;SDS011;7853;52.186;5.948;2023-04-07T05:21:34;5.93;;;3.48;;
15502;SDS011;7853;52.186;5.948;2023-04-07T05:22:35;5.77;;;3.16;;
15502;SDS011;7853;52.186;5.948;2023-04-07T05:23:37;6.16;;;3.19;;
15502;SDS011;7853;52.186;5.948;2023-04-07T05:24:33;6.68;;;3.32;;
15502;SDS011;7853;52.186;5.948;2023-04-07T05:25:34;6.82;;;3.32;;
15502;SDS011;7853;52.186;5.948;2023-04-07T05:26:34;6.53;;;3.63;;
15502;SDS011;7853;52.186;5.948;2023-04-07T05:27:34;6.06;;;3.42;;
15502;SDS011;7853;52.186;5.948;2023-04-07T05:28:34;5.59;;;3.21;;
15502;SDS011;7853;52.186;5.948;2023-04-07T05:29:35;6.66;;;3.79;;
15502;SDS011;7853;52.186;5.948;2023-04-07T05:30:35;7.03;;;3.39;;
15502;SDS011;7853;52.186;5.948;2023-04-07T05:31:34;4.61;;;3.24;;
15502;SDS011;7853;52.186;5.948;2023-04-07T05:32:35;6.66;;;3.32;;
15502;SDS011;7853;52.186;5.948;2023-04-07T05:33:34;5.43;;;3.61;;
15502;SDS011;7853;52.186;5.948;2023-04-07T05:34:34;6.65;;;3.74;;
15502;SDS011;7853;52.186;5.948;2023-04-07T05:35:35;5.86;;;3.64;;
15502;SDS011;7853;52.186;5.948;2023-04-07T05:36:35;6.98;;;3.84;;
15502;SDS011;7853;52.186;5.948;2023-04-07T05:37:35;7.05;;;3.69;;
15502;SDS011;7853;52.186;5.948;2023-04-07T05:38:35;5.26;;;3.38;;
15502;SDS011;7853;52.186;5.948;2023-04-07T05:39:35;5.34;;;3.42;;
15502;SDS011;7853;52.186;5.948;2023-04-07T05:40:35;6.11;;;3.20;;
15502;SDS011;7853;52.186;5.948;2023-04-07T05:41:35;6.43;;;3.44;;
15502;SDS011;7853;52.186;5.948;2023-04-07T05:42:35;6.50;;;3.56;;
15502;SDS011;7853;52.186;5.948;2023-04-07T05:43:35;5.95;;;3.41;;
15502;SDS011;7853;52.186;5.948;2023-04-07T05:44:35;5.99;;;3.72;;
15502;SDS011;7853;52.186;5.948;2023-04-07T05:45:35;5.91;;;3.52;;
15502;SDS011;7853;52.186;5.948;2023-04-07T05:46:35;6.84;;;3.61;;
15502;SDS011;7853;52.186;5.948;2023-04-07T05:47:35;6.04;;;3.21;;
15502;SDS011;7853;52.186;5.948;2023-04-07T05:48:35;5.50;;;3.33;;
15502;SDS011;7853;52.186;5.948;2023-04-07T05:49:34;6.36;;;3.70;;
15502;SDS011;7853;52.186;5.948;2023-04-07T05:50:35;6.14;;;3.45;;
15502;SDS011;7853;52.186;5.948;2023-04-07T05:51:36;5.81;;;3.64;;
15502;SDS011;7853;52.186;5.948;2023-04-07T05:52:37;7.09;;;3.48;;
15502;SDS011;7853;52.186;5.948;2023-04-07T05:53:33;7.34;;;3.59;;
15502;SDS011;7853;52.186;5.948;2023-04-07T05:54:34;6.55;;;3.74;;
15502;SDS011;7853;52.186;5.948;2023-04-07T05:55:34;6.20;;;3.54;;
15502;SDS011;7853;52.186;5.948;2023-04-07T05:56:34;7.38;;;3.90;;
15502;SDS011;7853;52.186;5.948;2023-04-07T05:57:35;7.07;;;3.47;;
15502;SDS011;7853;52.186;5.948;2023-04-07T05:58:34;5.69;;;3.77;;
15502;SDS011;7853;52.186;5.948;2023-04-07T05:59:35;7.46;;;4.07;;
15502;SDS011;7853;52.186;5.948;2023-04-07T06:00:35;7.37;;;3.98;;
15502;SDS011;7853;52.186;5.948;2023-04-07T06:01:35;6.36;;;3.88;;
15502;SDS011;7853;52.186;5.948;2023-04-07T06:02:34;6.14;;;3.66;;
15502;SDS011;7853;52.186;5.948;2023-04-07T06:03:35;6.88;;;3.79;;
15502;SDS011;7853;52.186;5.948;2023-04-07T06:04:35;5.61;;;3.52;;
15502;SDS011;7853;52.186;5.948;2023-04-07T06:05:35;6.65;;;4.01;;
15502;SDS011;7853;52.186;5.948;2023-04-07T06:06:35;6.44;;;3.33;;